Time;durP1;ratioP1;P1;durP2;ratioP2;P2;SDS_P1;SDS_P2;PMS_P1;PMS_P2;Temp;Humidity;BMP_temperature;BMP_pressure;BME280_temperature;BME280_humidity;BME280_pressure;Samples;Min_cycle;Max_cycle;Signal;HPM_P1;HPM_P2
2023/04/06 00:00:21;;;;;;;3.42;3.13;;;;;;;;;;8296954;28;20020;-60
2023/04/06 00:04:21;;;;;;;2.72;2.45;;;;;;;;;;8298704;28;20097;-60
2023/04/06 00:08:23;;;;;;;4.45;2.60;;;;;;;;;;8298031;28;20033;-60
2023/04/06 00:12:23;;;;;;;3.33;2.53;;;;;;;;;;8294814;28;20021;-60
2023/04/06 00:16:23;;;;;;;2.95;2.40;;;;;;;;;;8289198;28;20040;-60
2023/04/06 00:20:23;;;;;;;3.10;2.55;;;;;;;;;;8289331;28;20024;-60
2023/04/06 00:24:24;;;;;;;3.85;2.25;;;;;;;;;;8291416;28;20032;-60
2023/04/06 00:28:26;;;;;;;3.63;2.55;;;;;;;;;;8297950;28;20112;-60
2023/04/06 00:32:26;;;;;;;2.75;2.35;;;;;;;;;;8303837;28;20145;-60
2023/04/06 00:36:26;;;;;;;2.55;2.15;;;;;;;;;;8305532;28;20022;-60
2023/04/06 00:40:28;;;;;;;2.97;2.25;;;;;;;;;;8305183;28;20116;-60
2023/04/06 00:44:28;;;;;;;4.75;2.50;;;;;;;;;;8303775;28;20021;-60
2023/04/06 00:48:30;;;;;;;3.15;2.53;;;;;;;;;;8302290;28;20049;-60
2023/04/06 00:52:30;;;;;;;3.38;2.40;;;;;;;;;;8303541;28;20033;-60
2023/04/06 00:56:31;;;;;;;3.33;2.30;;;;;;;;;;8303147;28;20024;-60
2023/04/06 01:00:31;;;;;;;3.00;2.60;;;;;;;;;;8303182;28;20029;-60
2023/04/06 01:04:32;;;;;;;2.80;2.47;;;;;;;;;;8302482;28;20029;-60
2023/04/06 01:08:32;;;;;;;2.95;2.40;;;;;;;;;;8304606;28;20071;-60
2023/04/06 01:12:32;;;;;;;5.32;2.90;;;;;;;;;;8301177;28;20112;-60
2023/04/06 01:16:33;;;;;;;3.63;2.58;;;;;;;;;;8302566;28;20041;-60
2023/04/06 01:20:33;;;;;;;3.67;2.38;;;;;;;;;;8302994;28;20028;-60
2023/04/06 01:24:33;;;;;;;3.90;2.53;;;;;;;;;;8301371;28;20021;-60
2023/04/06 01:28:33;;;;;;;3.87;2.43;;;;;;;;;;8302875;28;20090;-60
2023/04/06 01:32:33;;;;;;;4.35;2.47;;;;;;;;;;8303648;28;20712;-60
2023/04/06 01:36:34;;;;;;;4.35;2.50;;;;;;;;;;8301732;28;20029;-60
2023/04/06 01:40:34;;;;;;;2.60;2.40;;;;;;;;;;8302361;28;20036;-60
2023/04/06 01:44:34;;;;;;;4.55;2.45;;;;;;;;;;8302061;28;20017;-60
2023/04/06 01:48:35;;;;;;;2.97;2.30;;;;;;;;;;8302997;28;20038;-60
2023/04/06 01:52:35;;;;;;;8.80;4.20;;;;;;;;;;8302398;28;21038;-60
2023/04/06 01:56:35;;;;;;;17.42;6.28;;;;;;;;;;8293255;28;20432;-60
2023/04/06 02:00:35;;;;;;;17.48;6.43;;;;;;;;;;8297342;28;20041;-60
2023/04/06 02:04:35;;;;;;;12.63;4.97;;;;;;;;;;8299990;28;20024;-60
2023/04/06 02:08:36;;;;;;;8.43;4.03;;;;;;;;;;8293305;28;20022;-60
2023/04/06 02:12:36;;;;;;;7.18;3.45;;;;;;;;;;8300464;28;20104;-60
2023/04/06 02:16:36;;;;;;;4.35;2.95;;;;;;;;;;8300997;28;20095;-61
2023/04/06 02:20:36;;;;;;;5.80;3.00;;;;;;;;;;8300961;28;20021;-60
2023/04/06 02:24:36;;;;;;;6.75;2.95;;;;;;;;;;8303075;28;20021;-61
2023/04/06 02:28:36;;;;;;;5.45;2.70;;;;;;;;;;8302339;28;20029;-61
2023/04/06 02:32:37;;;;;;;4.18;2.97;;;;;;;;;;8299447;28;20075;-61
2023/04/06 02:36:37;;;;;;;4.30;2.70;;;;;;;;;;8284401;28;20037;-61
2023/04/06 02:40:37;;;;;;;8.63;4.35;;;;;;;;;;8299965;28;20020;-60
2023/04/06 02:44:37;;;;;;;12.68;5.15;;;;;;;;;;8299822;28;20079;-61
2023/04/06 02:48:37;;;;;;;12.65;5.80;;;;;;;;;;8295720;28;20152;-61
2023/04/06 02:52:38;;;;;;;13.35;5.53;;;;;;;;;;8298749;28;20025;-61
2023/04/06 02:56:38;;;;;;;10.13;4.78;;;;;;;;;;8297088;28;20180;-61
2023/04/06 03:00:38;;;;;;;10.63;4.35;;;;;;;;;;8296139;28;20049;-61
2023/04/06 03:04:38;;;;;;;6.05;3.42;;;;;;;;;;8299266;28;20026;-60
2023/04/06 03:08:38;;;;;;;6.18;3.50;;;;;;;;;;8298342;28;20920;-60
2023/04/06 03:12:39;;;;;;;7.07;3.15;;;;;;;;;;8296713;28;20028;-60
2023/04/06 03:16:39;;;;;;;6.43;3.10;;;;;;;;;;8298616;28;20076;-61
2023/04/06 03:20:39;;;;;;;4.30;2.97;;;;;;;;;;8297680;28;20032;-60
2023/04/06 03:24:40;;;;;;;4.78;3.03;;;;;;;;;;8296513;28;20862;-60
2023/04/06 03:28:40;;;;;;;3.20;2.60;;;;;;;;;;8285577;28;20021;-60
2023/04/06 03:32:40;;;;;;;5.07;3.17;;;;;;;;;;8294212;28;20265;-61
2023/04/06 03:36:40;;;;;;;3.53;2.60;;;;;;;;;;8298427;28;20485;-60
2023/04/06 03:40:41;;;;;;;4.55;2.90;;;;;;;;;;8295587;28;20133;-60
2023/04/06 03:44:41;;;;;;;3.70;2.28;;;;;;;;;;8273862;28;20035;-60
2023/04/06 03:48:41;;;;;;;2.88;2.25;;;;;;;;;;8293489;28;21079;-60
2023/04/06 03:52:41;;;;;;;3.90;2.50;;;;;;;;;;8298874;28;20065;-60
2023/04/06 03:56:41;;;;;;;3.55;2.47;;;;;;;;;;8297879;28;20033;-61
2023/04/06 04:00:42;;;;;;;3.08;2.70;;;;;;;;;;8302942;28;20034;-61
2023/04/06 04:04:42;;;;;;;3.40;2.50;;;;;;;;;;8300049;28;20432;-61
2023/04/06 04:08:42;;;;;;;7.18;2.75;;;;;;;;;;8295837;28;20128;-60
2023/04/06 04:12:42;;;;;;;5.07;2.80;;;;;;;;;;8307238;28;20040;-60
2023/04/06 04:16:42;;;;;;;3.97;3.00;;;;;;;;;;8298714;28;21124;-60
2023/04/06 04:20:43;;;;;;;4.20;2.90;;;;;;;;;;8295275;28;20996;-60
2023/04/06 04:24:43;;;;;;;4.90;2.75;;;;;;;;;;8298867;28;20099;-60
2023/04/06 04:28:43;;;;;;;4.45;2.80;;;;;;;;;;8294855;28;20507;-60
2023/04/06 04:32:43;;;;;;;4.40;2.80;;;;;;;;;;8301036;28;20072;-61
2023/04/06 04:36:43;;;;;;;4.40;2.78;;;;;;;;;;8303339;28;20036;-61
2023/04/06 04:40:44;;;;;;;3.67;2.28;;;;;;;;;;8301412;28;20036;-60
2023/04/06 04:44:44;;;;;;;6.43;2.42;;;;;;;;;;8302963;28;20028;-60
2023/04/06 04:48:44;;;;;;;4.40;2.80;;;;;;;;;;8300961;28;20053;-60
2023/04/06 04:52:44;;;;;;;3.55;2.80;;;;;;;;;;8303081;28;20505;-61
2023/04/06 04:56:45;;;;;;;3.17;2.78;;;;;;;;;;8301484;28;20037;-61
2023/04/06 05:00:45;;;;;;;5.60;3.00;;;;;;;;;;8299570;28;20773;-61
2023/04/06 05:04:46;;;;;;;2.90;2.50;;;;;;;;;;8300471;28;20033;-61
2023/04/06 05:08:46;;;;;;;3.75;2.70;;;;;;;;;;8298657;28;20032;-61
2023/04/06 05:12:46;;;;;;;4.25;2.85;;;;;;;;;;8294753;28;20028;-61
2023/04/06 05:16:46;;;;;;;3.35;2.60;;;;;;;;;;8300169;28;20045;-61
2023/04/06 05:20:47;;;;;;;7.05;3.15;;;;;;;;;;8302075;28;20112;-61
2023/04/06 05:24:47;;;;;;;3.35;2.38;;;;;;;;;;8302628;28;20750;-61
2023/04/06 05:28:47;;;;;;;5.53;2.88;;;;;;;;;;8302996;28;20466;-61
2023/04/06 05:32:47;;;;;;;4.50;2.90;;;;;;;;;;8302151;28;20044;-61
2023/04/06 05:36:47;;;;;;;3.88;2.80;;;;;;;;;;8303528;28;20759;-61
2023/04/06 05:40:48;;;;;;;3.08;2.40;;;;;;;;;;8299877;28;21207;-61
2023/04/06 05:44:48;;;;;;;4.15;2.83;;;;;;;;;;8302688;28;20030;-61
2023/04/06 05:48:48;;;;;;;4.20;3.13;;;;;;;;;;8300810;28;20049;-61
2023/04/06 05:52:48;;;;;;;4.95;3.17;;;;;;;;;;8303249;28;20060;-61
2023/04/06 05:56:48;;;;;;;6.15;2.67;;;;;;;;;;8302582;28;20040;-61
2023/04/06 06:00:49;;;;;;;7.50;2.65;;;;;;;;;;8302098;28;20079;-61
2023/04/06 06:04:49;;;;;;;6.30;2.97;;;;;;;;;;8300390;28;20025;-61
2023/04/06 06:08:49;;;;;;;6.50;2.77;;;;;;;;;;8301567;28;20026;-61
2023/04/06 06:12:50;;;;;;;5.70;3.08;;;;;;;;;;8301363;28;20271;-62
2023/04/06 06:16:50;;;;;;;4.35;3.20;;;;;;;;;;8300614;28;20761;-62
2023/04/06 06:20:51;;;;;;;4.78;3.00;;;;;;;;;;8300128;28;20030;-62
2023/04/06 06:24:51;;;;;;;5.57;3.45;;;;;;;;;;8301226;28;20028;-62
2023/04/06 06:28:51;;;;;;;4.72;3.40;;;;;;;;;;8300860;28;20033;-62
2023/04/06 06:32:51;;;;;;;4.85;3.05;;;;;;;;;;8284144;28;20590;-63
2023/04/06 06:36:54;;;;;;;6.68;3.28;;;;;;;;;;8299718;28;20083;-62
2023/04/06 06:40:54;;;;;;;4.95;3.35;;;;;;;;;;8300575;28;20375;-63
2023/04/06 06:44:54;;;;;;;4.60;3.35;;;;;;;;;;8301027;28;20021;-62
2023/04/06 06:48:55;;;;;;;5.30;3.80;;;;;;;;;;8297027;28;20041;-63
2023/04/06 06:52:55;;;;;;;4.00;3.58;;;;;;;;;;8299029;28;20522;-62
2023/04/06 06:56:55;;;;;;;6.25;3.80;;;;;;;;;;8301545;28;20034;-62
2023/04/06 07:00:59;;;;;;;7.30;3.83;;;;;;;;;;8298578;28;20164;-62
2023/04/06 07:04:59;;;;;;;5.45;4.25;;;;;;;;;;8297739;28;20519;-63
2023/04/06 07:08:59;;;;;;;10.15;4.85;;;;;;;;;;8298794;28;20041;-62
2023/04/06 07:13:00;;;;;;;10.13;4.90;;;;;;;;;;8300412;28;20037;-62
2023/04/06 07:17:00;;;;;;;7.78;5.05;;;;;;;;;;8299231;28;20666;-63
2023/04/06 07:21:00;;;;;;;7.70;5.47;;;;;;;;;;8299463;28;20047;-63
2023/04/06 07:25:00;;;;;;;13.20;5.70;;;;;;;;;;8300316;28;20052;-63
2023/04/06 07:29:00;;;;;;;7.45;5.72;;;;;;;;;;8298408;28;20100;-62
2023/04/06 07:33:01;;;;;;;10.70;5.72;;;;;;;;;;8298280;28;20649;-63
2023/04/06 07:37:01;;;;;;;11.93;5.70;;;;;;;;;;8298641;28;20037;-63
2023/04/06 07:41:03;;;;;;;12.13;5.45;;;;;;;;;;8295129;28;20020;-63
2023/04/06 07:45:04;;;;;;;9.50;5.20;;;;;;;;;;8299071;28;20036;-63
2023/04/06 07:49:04;;;;;;;8.70;5.38;;;;;;;;;;8298264;28;20037;-62
2023/04/06 07:53:04;;;;;;;8.07;5.18;;;;;;;;;;8299740;28;20841;-62
2023/04/06 07:57:04;;;;;;;7.40;4.80;;;;;;;;;;8299428;28;20029;-63
2023/04/06 08:01:05;;;;;;;10.70;5.07;;;;;;;;;;8295243;28;20041;-63
2023/04/06 08:05:05;;;;;;;8.43;4.80;;;;;;;;;;8298342;28;20022;-62
2023/04/06 08:09:05;;;;;;;6.95;4.40;;;;;;;;;;8298148;28;20033;-62
2023/04/06 08:13:06;;;;;;;7.45;4.60;;;;;;;;;;8292601;28;20486;-63
2023/04/06 08:17:06;;;;;;;7.68;4.80;;;;;;;;;;8288155;28;20044;-63
2023/04/06 08:21:06;;;;;;;9.63;5.22;;;;;;;;;;8287445;28;20028;-63
2023/04/06 08:25:06;;;;;;;8.75;4.97;;;;;;;;;;8289788;28;20492;-63
2023/04/06 08:29:10;;;;;;;6.43;4.67;;;;;;;;;;8286797;28;20043;-62
2023/04/06 08:33:10;;;;;;;9.00;4.68;;;;;;;;;;8286582;28;20280;-62
2023/04/06 08:37:10;;;;;;;7.18;4.90;;;;;;;;;;8288844;28;20547;-63
2023/04/06 08:41:11;;;;;;;10.70;5.65;;;;;;;;;;8288022;28;20119;-63
2023/04/06 08:45:13;;;;;;;8.82;5.65;;;;;;;;;;8288218;28;20544;-63
2023/04/06 08:49:14;;;;;;;9.23;5.35;;;;;;;;;;8293842;28;20386;-63
2023/04/06 08:53:15;;;;;;;7.03;5.38;;;;;;;;;;8296063;28;20025;-63
2023/04/06 08:57:15;;;;;;;7.93;5.63;;;;;;;;;;8293093;28;20453;-63
2023/04/06 09:01:17;;;;;;;7.95;5.47;;;;;;;;;;8290132;28;20369;-63
2023/04/06 09:05:18;;;;;;;8.93;5.53;;;;;;;;;;8289777;28;20036;-63
2023/04/06 09:09:18;;;;;;;7.15;5.55;;;;;;;;;;8290384;28;20510;-63
2023/04/06 09:13:18;;;;;;;7.65;5.55;;;;;;;;;;8290892;28;20306;-63
2023/04/06 09:17:25;;;;;;;7.15;5.32;;;;;;;;;;8288385;28;20414;-63
2023/04/06 09:21:25;;;;;;;6.57;5.05;;;;;;;;;;8291724;28;20497;-63
2023/04/06 09:25:28;;;;;;;8.15;5.43;;;;;;;;;;8290437;28;20021;-63
2023/04/06 09:29:28;;;;;;;8.45;5.28;;;;;;;;;;8287711;28;20997;-63
2023/04/06 09:33:28;;;;;;;9.18;5.57;;;;;;;;;;8291110;28;20033;-63
2023/04/06 09:37:29;;;;;;;8.60;5.20;;;;;;;;;;8288834;28;20480;-63
2023/04/06 09:41:30;;;;;;;8.85;5.60;;;;;;;;;;8292987;28;20022;-62
2023/04/06 09:45:30;;;;;;;9.55;5.22;;;;;;;;;;8291551;28;20045;-62
2023/04/06 09:49:31;;;;;;;7.57;5.38;;;;;;;;;;8289058;28;20056;-62
2023/04/06 09:53:31;;;;;;;8.05;5.90;;;;;;;;;;8292451;28;20337;-62
2023/04/06 09:57:35;;;;;;;9.20;5.57;;;;;;;;;;8292882;28;20812;-63
2023/04/06 10:01:36;;;;;;;7.10;5.47;;;;;;;;;;8281120;28;20037;-63
2023/04/06 10:05:39;;;;;;;9.77;5.60;;;;;;;;;;8289289;28;20024;-63
2023/04/06 10:09:39;;;;;;;7.88;5.95;;;;;;;;;;8290903;28;20301;-62
2023/04/06 10:13:40;;;;;;;7.83;5.37;;;;;;;;;;8283867;28;20028;-62
2023/04/06 10:17:40;;;;;;;8.43;5.22;;;;;;;;;;8279820;28;20517;-62
2023/04/06 10:21:43;;;;;;;8.00;5.70;;;;;;;;;;8271290;28;20017;-62
2023/04/06 10:25:56;;;;;;;7.60;5.50;;;;;;;;;;8281122;28;20128;-62
2023/04/06 10:30:04;;;;;;;8.02;5.18;;;;;;;;;;8291782;28;20037;-62
2023/04/06 10:34:05;;;;;;;8.48;5.15;;;;;;;;;;8290292;28;20573;-63
2023/04/06 10:38:05;;;;;;;8.45;5.38;;;;;;;;;;8293777;28;20430;-63
2023/04/06 10:42:06;;;;;;;9.93;5.50;;;;;;;;;;8289098;28;20028;-62
2023/04/06 10:46:07;;;;;;;7.28;5.32;;;;;;;;;;8295825;28;20489;-62
2023/04/06 10:50:07;;;;;;;9.43;5.00;;;;;;;;;;8288042;28;20742;-62
2023/04/06 10:54:08;;;;;;;6.63;5.10;;;;;;;;;;8290689;28;20258;-62
2023/04/06 10:58:08;;;;;;;7.65;4.70;;;;;;;;;;8286896;28;20291;-62
2023/04/06 11:02:08;;;;;;;8.40;4.63;;;;;;;;;;8287276;28;20041;-62
2023/04/06 11:06:08;;;;;;;5.70;4.47;;;;;;;;;;8285698;28;20021;-62
2023/04/06 11:10:08;;;;;;;5.82;4.10;;;;;;;;;;8288523;28;20040;-62
2023/04/06 11:14:09;;;;;;;4.57;4.03;;;;;;;;;;8285395;28;20542;-63
2023/04/06 11:18:11;;;;;;;8.38;5.00;;;;;;;;;;8287387;28;20063;-62
2023/04/06 11:22:11;;;;;;;4.10;3.35;;;;;;;;;;8285591;28;20022;-63
2023/04/06 11:26:12;;;;;;;7.80;4.65;;;;;;;;;;8288667;28;20631;-62
2023/04/06 11:30:13;;;;;;;5.57;4.53;;;;;;;;;;8283861;28;20102;-63
2023/04/06 11:34:20;;;;;;;4.55;3.67;;;;;;;;;;8289459;28;20028;-63
2023/04/06 11:38:21;;;;;;;5.97;4.00;;;;;;;;;;8289398;28;20040;-63
2023/04/06 11:42:22;;;;;;;3.97;3.45;;;;;;;;;;8287713;28;20034;-63
2023/04/06 11:46:25;;;;;;;5.05;3.80;;;;;;;;;;8285655;28;20262;-63
2023/04/06 11:50:31;;;;;;;6.28;3.35;;;;;;;;;;8285863;28;20025;-62
2023/04/06 11:54:32;;;;;;;5.60;3.83;;;;;;;;;;8289173;28;20036;-62
2023/04/06 11:58:32;;;;;;;6.13;3.80;;;;;;;;;;8288880;28;20520;-62
2023/04/06 12:02:32;;;;;;;6.97;4.00;;;;;;;;;;8288986;28;20033;-62
2023/04/06 12:06:32;;;;;;;6.50;4.28;;;;;;;;;;8289558;28;20505;-62
2023/04/06 12:10:33;;;;;;;4.63;3.80;;;;;;;;;;8289267;28;20114;-62
2023/04/06 12:14:33;;;;;;;6.07;3.90;;;;;;;;;;8289131;28;20025;-63
2023/04/06 12:18:33;;;;;;;8.55;4.50;;;;;;;;;;8287852;28;20033;-62
2023/04/06 12:22:33;;;;;;;7.70;3.35;;;;;;;;;;8295594;28;20116;-63
2023/04/06 12:26:34;;;;;;;6.72;3.35;;;;;;;;;;8295015;28;20486;-62
2023/04/06 12:30:34;;;;;;;4.53;3.60;;;;;;;;;;8294819;28;20041;-62
2023/04/06 12:34:35;;;;;;;6.30;5.57;;;;;;;;;;8295193;28;20700;-62
2023/04/06 12:38:37;;;;;;;6.85;5.30;;;;;;;;;;8295009;28;20438;-62
2023/04/06 12:42:38;;;;;;;7.10;4.95;;;;;;;;;;8290158;28;20413;-62
2023/04/06 12:46:38;;;;;;;8.70;5.68;;;;;;;;;;8290345;28;20037;-62
2023/04/06 12:50:38;;;;;;;6.20;5.15;;;;;;;;;;8292233;28;20470;-62
2023/04/06 12:54:39;;;;;;;7.13;4.90;;;;;;;;;;8292534;28;20035;-63
2023/04/06 12:58:41;;;;;;;7.25;4.60;;;;;;;;;;8290449;28;20030;-62
2023/04/06 13:02:46;;;;;;;6.53;4.30;;;;;;;;;;8293994;28;20059;-62
2023/04/06 13:06:46;;;;;;;5.35;4.50;;;;;;;;;;8292515;28;20033;-62
2023/04/06 13:10:47;;;;;;;5.07;3.67;;;;;;;;;;8289653;28;20071;-62
2023/04/06 13:14:50;;;;;;;5.53;4.43;;;;;;;;;;8292186;28;20021;-62
2023/04/06 13:18:51;;;;;;;6.23;4.80;;;;;;;;;;8289670;28;20041;-62
2023/04/06 13:22:51;;;;;;;6.78;4.32;;;;;;;;;;8287701;28;20948;-62
2023/04/06 13:26:51;;;;;;;7.95;4.38;;;;;;;;;;8290538;28;20013;-62
2023/04/06 13:30:51;;;;;;;6.88;4.78;;;;;;;;;;8289304;28;20128;-62
2023/04/06 13:34:54;;;;;;;7.70;5.30;;;;;;;;;;8289946;28;20478;-62
2023/04/06 13:38:55;;;;;;;6.07;5.10;;;;;;;;;;8289083;28;20025;-62
2023/04/06 13:42:55;;;;;;;6.85;5.25;;;;;;;;;;8289896;28;20029;-62
2023/04/06 13:46:56;;;;;;;7.85;5.65;;;;;;;;;;8289766;28;20307;-62
2023/04/06 13:50:57;;;;;;;6.78;5.45;;;;;;;;;;8287763;28;20060;-62
2023/04/06 13:54:57;;;;;;;7.00;4.88;;;;;;;;;;8290411;28;20361;-62
2023/04/06 13:58:58;;;;;;;7.53;5.63;;;;;;;;;;8288844;28;20794;-62
2023/04/06 14:02:58;;;;;;;8.70;5.95;;;;;;;;;;8287747;28;20156;-62
2023/04/06 14:06:59;;;;;;;7.30;5.80;;;;;;;;;;8291519;28;20155;-62
2023/04/06 14:10:59;;;;;;;9.50;5.72;;;;;;;;;;8290029;28;20048;-62
2023/04/06 14:15:00;;;;;;;7.60;5.43;;;;;;;;;;8291119;28;20029;-61
2023/04/06 14:19:00;;;;;;;8.50;5.40;;;;;;;;;;8290972;28;20751;-62
2023/04/06 14:23:01;;;;;;;9.07;5.70;;;;;;;;;;8292283;28;20267;-62
2023/04/06 14:27:02;;;;;;;7.47;5.30;;;;;;;;;;8292121;28;20584;-62
2023/04/06 14:31:09;;;;;;;5.93;4.30;;;;;;;;;;8291131;28;20559;-62
2023/04/06 14:35:09;;;;;;;8.90;4.97;;;;;;;;;;8290718;28;20144;-63
2023/04/06 14:39:10;;;;;;;8.18;4.80;;;;;;;;;;8291540;28;20364;-61
2023/04/06 14:43:10;;;;;;;5.55;4.10;;;;;;;;;;8291774;28;20562;-61
2023/04/06 14:47:10;;;;;;;7.90;5.43;;;;;;;;;;8291947;28;20041;-62
2023/04/06 14:51:11;;;;;;;7.60;4.05;;;;;;;;;;8291022;28;20029;-61
2023/04/06 14:55:11;;;;;;;6.28;3.90;;;;;;;;;;8291826;28;20108;-61
2023/04/06 14:59:11;;;;;;;6.10;3.80;;;;;;;;;;8289735;28;20061;-62
2023/04/06 15:03:11;;;;;;;5.60;3.20;;;;;;;;;;8290659;28;20435;-61
2023/04/06 15:07:11;;;;;;;6.30;3.53;;;;;;;;;;8290437;28;20028;-61
2023/04/06 15:11:12;;;;;;;4.43;3.33;;;;;;;;;;8290754;28;20511;-61
2023/04/06 15:15:12;;;;;;;4.65;3.10;;;;;;;;;;8289141;28;20484;-61
2023/04/06 15:19:13;;;;;;;4.75;3.67;;;;;;;;;;8289329;28;20030;-61
2023/04/06 15:23:13;;;;;;;4.40;3.47;;;;;;;;;;8290270;28;20041;-61
2023/04/06 15:27:13;;;;;;;4.82;3.55;;;;;;;;;;8289956;28;20025;-61
2023/04/06 15:31:17;;;;;;;4.88;3.47;;;;;;;;;;8289949;28;20164;-61
2023/04/06 15:35:17;;;;;;;4.10;3.35;;;;;;;;;;8291785;28;20040;-61
2023/04/06 15:39:17;;;;;;;4.70;3.10;;;;;;;;;;8291896;28;20023;-61
2023/04/06 15:43:17;;;;;;;5.30;2.85;;;;;;;;;;8288017;28;20282;-61
2023/04/06 15:47:18;;;;;;;4.78;3.00;;;;;;;;;;8289732;28;20524;-61
2023/04/06 15:51:18;;;;;;;4.63;3.35;;;;;;;;;;8288505;28;20527;-61
2023/04/06 15:55:18;;;;;;;4.43;2.70;;;;;;;;;;8293649;28;20029;-61
2023/04/06 15:59:18;;;;;;;4.10;2.63;;;;;;;;;;8294672;28;20029;-61
2023/04/06 16:03:19;;;;;;;3.00;2.70;;;;;;;;;;8296412;28;20470;-61
2023/04/06 16:07:19;;;;;;;4.10;2.92;;;;;;;;;;8295475;28;20063;-61
2023/04/06 16:11:20;;;;;;;4.03;3.15;;;;;;;;;;8296297;28;20048;-61
2023/04/06 16:15:20;;;;;;;3.97;2.83;;;;;;;;;;8294831;28;20242;-62
2023/04/06 16:19:20;;;;;;;5.38;3.25;;;;;;;;;;8296099;28;20036;-61
2023/04/06 16:23:20;;;;;;;3.55;2.90;;;;;;;;;;8296407;28;20607;-61
2023/04/06 16:27:20;;;;;;;5.47;2.90;;;;;;;;;;8294710;28;20025;-61
2023/04/06 16:31:22;;;;;;;4.25;2.53;;;;;;;;;;8294849;28;20703;-61
2023/04/06 16:35:22;;;;;;;4.43;3.05;;;;;;;;;;8295274;28;20505;-62
2023/04/06 16:39:22;;;;;;;7.27;3.37;;;;;;;;;;8294899;28;20835;-61
2023/04/06 16:43:22;;;;;;;4.63;2.97;;;;;;;;;;8296155;28;20351;-62
2023/04/06 16:47:23;;;;;;;7.65;2.90;;;;;;;;;;8296405;28;20099;-61
2023/04/06 16:51:23;;;;;;;3.65;2.97;;;;;;;;;;8295900;28;20021;-61
2023/04/06 16:55:23;;;;;;;4.10;2.85;;;;;;;;;;8293992;28;20036;-61
2023/04/06 16:59:23;;;;;;;9.25;2.70;;;;;;;;;;8288542;28;20488;-61
2023/04/06 17:03:23;;;;;;;3.70;2.97;;;;;;;;;;8289735;28;20502;-61
2023/04/06 17:07:30;;;;;;;5.63;4.28;;;;;;;;;;8289816;28;20559;-61
2023/04/06 17:11:30;;;;;;;4.90;3.22;;;;;;;;;;8289881;28;21810;-61
2023/04/06 17:15:30;;;;;;;3.83;2.72;;;;;;;;;;8290744;28;20540;-61
2023/04/06 17:19:31;;;;;;;5.32;3.45;;;;;;;;;;8290885;28;20374;-61
2023/04/06 17:23:31;;;;;;;5.83;3.13;;;;;;;;;;8297975;28;20152;-61
2023/04/06 17:27:31;;;;;;;6.38;2.83;;;;;;;;;;8290366;28;21112;-61
2023/04/06 17:31:31;;;;;;;5.00;3.17;;;;;;;;;;8289727;28;20044;-61
2023/04/06 17:35:32;;;;;;;9.20;3.90;;;;;;;;;;8289467;28;20474;-61
2023/04/06 17:39:32;;;;;;;7.28;4.47;;;;;;;;;;8289346;28;20064;-61
2023/04/06 17:43:32;;;;;;;8.15;4.40;;;;;;;;;;8289159;28;20183;-61
2023/04/06 17:47:32;;;;;;;7.47;4.10;;;;;;;;;;8290397;28;20397;-61
2023/04/06 17:51:33;;;;;;;8.45;3.50;;;;;;;;;;8288531;28;20033;-61
2023/04/06 17:55:34;;;;;;;7.50;3.70;;;;;;;;;;8288425;28;20220;-61
2023/04/06 17:59:34;;;;;;;6.78;4.18;;;;;;;;;;8289742;28;20470;-61
2023/04/06 18:03:34;;;;;;;6.23;3.63;;;;;;;;;;8287777;28;20432;-61
2023/04/06 18:07:35;;;;;;;7.07;3.60;;;;;;;;;;8289478;28;21124;-61
2023/04/06 18:11:36;;;;;;;9.73;3.85;;;;;;;;;;8288946;28;20029;-61
2023/04/06 18:15:37;;;;;;;5.93;3.42;;;;;;;;;;8287428;28;20223;-61
2023/04/06 18:19:37;;;;;;;4.93;3.45;;;;;;;;;;8287894;28;20551;-61
2023/04/06 18:23:37;;;;;;;3.90;3.40;;;;;;;;;;8287666;28;20542;-61
2023/04/06 18:27:37;;;;;;;3.78;3.20;;;;;;;;;;8288174;28;20961;-62
2023/04/06 18:31:37;;;;;;;3.85;3.33;;;;;;;;;;8288571;28;20030;-61
2023/04/06 18:35:38;;;;;;;4.35;3.35;;;;;;;;;;8287968;28;20373;-61
2023/04/06 18:39:41;;;;;;;4.70;3.38;;;;;;;;;;8288730;28;20120;-61
2023/04/06 18:43:42;;;;;;;5.87;3.73;;;;;;;;;;8286842;28;20018;-61
2023/04/06 18:47:42;;;;;;;4.32;3.75;;;;;;;;;;8286898;28;20055;-61
2023/04/06 18:51:42;;;;;;;5.07;3.85;;;;;;;;;;8287218;28;20040;-61
2023/04/06 18:55:44;;;;;;;5.90;3.88;;;;;;;;;;8287979;28;20442;-61
2023/04/06 18:59:44;;;;;;;6.32;4.00;;;;;;;;;;8286703;28;20441;-61
2023/04/06 19:03:44;;;;;;;5.97;4.60;;;;;;;;;;8287785;28;20040;-61
2023/04/06 19:07:51;;;;;;;5.55;4.50;;;;;;;;;;8288173;28;20025;-61
2023/04/06 19:11:51;;;;;;;4.03;3.60;;;;;;;;;;8286402;28;20036;-61
2023/04/06 19:15:51;;;;;;;6.40;4.45;;;;;;;;;;8287444;28;20045;-62
2023/04/06 19:19:51;;;;;;;4.40;3.63;;;;;;;;;;8287347;28;20436;-61
2023/04/06 19:23:53;;;;;;;5.28;4.03;;;;;;;;;;8288459;28;20482;-61
2023/04/06 19:27:53;;;;;;;5.97;3.85;;;;;;;;;;8286025;28;20022;-61
2023/04/06 19:31:53;;;;;;;5.72;3.78;;;;;;;;;;8284729;28;20425;-61
2023/04/06 19:35:54;;;;;;;3.97;3.22;;;;;;;;;;8285861;28;20363;-61
2023/04/06 19:39:54;;;;;;;3.70;3.05;;;;;;;;;;8285525;28;20501;-61
2023/04/06 19:43:54;;;;;;;4.20;3.20;;;;;;;;;;8284990;28;20021;-61
2023/04/06 19:47:55;;;;;;;6.20;3.40;;;;;;;;;;8285019;28;20056;-61
2023/04/06 19:51:55;;;;;;;4.90;3.28;;;;;;;;;;8284712;28;20056;-61
2023/04/06 19:55:55;;;;;;;4.40;3.45;;;;;;;;;;8285398;28;20035;-62
2023/04/06 19:59:55;;;;;;;5.07;3.35;;;;;;;;;;8285463;28;20040;-61
2023/04/06 20:03:55;;;;;;;4.28;3.35;;;;;;;;;;8286426;28;20048;-61
2023/04/06 20:07:55;;;;;;;3.85;3.15;;;;;;;;;;8284949;28;20350;-61
2023/04/06 20:11:56;;;;;;;5.07;3.35;;;;;;;;;;8284646;28;20115;-61
2023/04/06 20:15:56;;;;;;;6.10;3.58;;;;;;;;;;8283285;28;20039;-61
2023/04/06 20:19:56;;;;;;;5.57;4.20;;;;;;;;;;8288034;28;20108;-62
2023/04/06 20:23:56;;;;;;;5.85;3.65;;;;;;;;;;8290506;28;20647;-61
2023/04/06 20:27:56;;;;;;;5.70;3.90;;;;;;;;;;8287451;28;20159;-61
2023/04/06 20:31:57;;;;;;;5.97;3.55;;;;;;;;;;8287268;28;20041;-61
2023/04/06 20:35:57;;;;;;;4.05;3.30;;;;;;;;;;8289493;28;20037;-61
2023/04/06 20:39:58;;;;;;;3.88;3.15;;;;;;;;;;8290086;28;20485;-61
2023/04/06 20:43:58;;;;;;;3.63;3.25;;;;;;;;;;8295095;28;20029;-61
2023/04/06 20:47:58;;;;;;;5.63;3.30;;;;;;;;;;8294047;28;20737;-61
2023/04/06 20:52:00;;;;;;;4.30;3.25;;;;;;;;;;8294009;28;20045;-61
2023/04/06 20:56:01;;;;;;;4.10;3.25;;;;;;;;;;8294289;28;20085;-61
2023/04/06 21:00:01;;;;;;;5.78;3.50;;;;;;;;;;8294870;28;20033;-61
2023/04/06 21:04:02;;;;;;;3.65;2.95;;;;;;;;;;8295364;28;20042;-61
2023/04/06 21:08:02;;;;;;;4.13;3.05;;;;;;;;;;8293309;28;20572;-61
2023/04/06 21:12:03;;;;;;;3.70;3.17;;;;;;;;;;8294289;28;20769;-61
2023/04/06 21:16:04;;;;;;;3.65;3.28;;;;;;;;;;8293496;28;20041;-61
2023/04/06 21:20:04;;;;;;;3.80;3.28;;;;;;;;;;8293275;28;20024;-61
2023/04/06 21:24:05;;;;;;;4.55;2.88;;;;;;;;;;8294393;28;20046;-61
2023/04/06 21:28:05;;;;;;;4.40;3.50;;;;;;;;;;8295132;28;20060;-61
2023/04/06 21:32:05;;;;;;;3.30;2.88;;;;;;;;;;8293020;28;20279;-61
2023/04/06 21:36:06;;;;;;;3.63;3.33;;;;;;;;;;8293553;28;20148;-62
2023/04/06 21:40:07;;;;;;;4.25;3.22;;;;;;;;;;8293071;28;20033;-61
2023/04/06 21:44:07;;;;;;;3.88;3.47;;;;;;;;;;8292476;28;20033;-61
2023/04/06 21:48:07;;;;;;;3.95;3.22;;;;;;;;;;8293584;28;20687;-61
2023/04/06 21:52:07;;;;;;;3.93;3.40;;;;;;;;;;8294914;28;20443;-61
2023/04/06 21:56:08;;;;;;;3.60;3.05;;;;;;;;;;8293932;28;20050;-61
2023/04/06 22:00:11;;;;;;;3.45;3.10;;;;;;;;;;8293441;28;20587;-61
2023/04/06 22:04:11;;;;;;;7.03;3.55;;;;;;;;;;8292503;28;20735;-61
2023/04/06 22:08:11;;;;;;;4.03;3.38;;;;;;;;;;8293308;28;20043;-61
2023/04/06 22:12:11;;;;;;;4.18;3.38;;;;;;;;;;8290311;28;20828;-61
2023/04/06 22:16:11;;;;;;;3.40;3.10;;;;;;;;;;8291837;28;20529;-61
2023/04/06 22:20:11;;;;;;;4.47;3.05;;;;;;;;;;8291263;28;20029;-61
2023/04/06 22:24:12;;;;;;;3.65;2.58;;;;;;;;;;8293127;28;20029;-61
2023/04/06 22:28:12;;;;;;;3.50;3.20;;;;;;;;;;8291549;28;20441;-61
2023/04/06 22:32:12;;;;;;;3.88;2.90;;;;;;;;;;8291683;28;20059;-61
2023/04/06 22:36:12;;;;;;;4.63;3.40;;;;;;;;;;8291100;28;20520;-61
2023/04/06 22:40:13;;;;;;;4.72;3.53;;;;;;;;;;8291176;28;20511;-61
2023/04/06 22:44:13;;;;;;;4.73;3.80;;;;;;;;;;8292403;28;20131;-61
2023/04/06 22:48:13;;;;;;;8.23;4.90;;;;;;;;;;8292746;28;20279;-61
2023/04/06 22:52:13;;;;;;;7.18;5.50;;;;;;;;;;8288750;28;20485;-61
2023/04/06 22:56:13;;;;;;;7.07;5.85;;;;;;;;;;8290589;28;20029;-61
2023/04/06 23:00:13;;;;;;;5.05;4.30;;;;;;;;;;8286281;28;20561;-62
2023/04/06 23:04:14;;;;;;;7.07;5.47;;;;;;;;;;8289873;28;20794;-61
2023/04/06 23:08:14;;;;;;;9.75;5.38;;;;;;;;;;8291677;28;20909;-61
2023/04/06 23:12:15;;;;;;;7.80;5.77;;;;;;;;;;8291493;28;20510;-61
2023/04/06 23:16:15;;;;;;;6.22;4.55;;;;;;;;;;8290188;28;20288;-61
2023/04/06 23:20:16;;;;;;;8.38;5.30;;;;;;;;;;8291490;28;20079;-61
2023/04/06 23:24:16;;;;;;;8.90;5.25;;;;;;;;;;8292086;28;20025;-61
2023/04/06 23:28:16;;;;;;;10.35;6.22;;;;;;;;;;8291423;28;20080;-61
2023/04/06 23:32:16;;;;;;;7.10;5.53;;;;;;;;;;8281934;28;20406;-61
2023/04/06 23:36:16;;;;;;;7.13;5.35;;;;;;;;;;8291042;28;20433;-61
2023/04/06 23:40:17;;;;;;;9.18;5.72;;;;;;;;;;8290216;28;20025;-62
2023/04/06 23:44:17;;;;;;;6.07;4.93;;;;;;;;;;8288689;28;20637;-61
2023/04/06 23:48:17;;;;;;;8.05;5.47;;;;;;;;;;8286784;28;20350;-61
2023/04/06 23:52:17;;;;;;;7.18;4.47;;;;;;;;;;8291164;28;20033;-61
2023/04/06 23:56:17;;;;;;;6.90;4.65;;;;;;;;;;8287978;28;20013;-61
